createdAt,value
2019-04-06T00:01:13.415Z,41.23
2019-04-06T00:03:42.704Z,38.80
2019-04-06T00:06:11.974Z,41.63
2019-04-06T00:08:41.233Z,41.23
2019-04-06T00:11:13.167Z,40.10
2019-04-06T00:13:42.658Z,43.73
2019-04-06T00:16:12.044Z,39.90
2019-04-06T00:18:43.288Z,39.60
2019-04-06T00:21:12.500Z,42.80
2019-04-06T00:23:43.150Z,42.60
2019-04-06T00:26:12.430Z,41.40
2019-04-06T00:28:41.612Z,46.07
2019-04-06T00:31:47.965Z,41.33
2019-04-06T00:34:19.355Z,40.23
2019-04-06T00:36:48.641Z,40.23
2019-04-06T00:39:18.172Z,43.70
2019-04-06T00:41:47.393Z,44.90
2019-04-06T00:44:16.899Z,43.87
2019-04-06T00:46:46.243Z,42.63
2019-04-06T00:49:15.475Z,44.73
2019-04-06T00:51:45.811Z,42.43
2019-04-06T00:54:16.280Z,45.70
2019-04-06T00:56:46.069Z,48.67
2019-04-06T00:59:15.815Z,47.63
2019-04-06T01:01:46.759Z,43.00
2019-04-06T01:04:15.970Z,48.40
2019-04-06T01:06:45.486Z,50.27
2019-04-06T01:09:14.866Z,52.63
2019-04-06T01:11:45.803Z,58.83
2019-04-06T01:14:15.025Z,56.43
2019-04-06T01:16:44.321Z,59.03
2019-04-06T01:19:13.516Z,59.77
2019-04-06T01:21:42.722Z,59.27
2019-04-06T01:24:11.990Z,62.03
2019-04-06T01:26:41.252Z,63.30
2019-04-06T01:29:10.484Z,65.43
2019-04-06T01:31:40.336Z,61.33
2019-04-06T01:34:09.879Z,57.87
2019-04-06T01:36:39.283Z,58.50
2019-04-06T01:39:08.904Z,60.63
2019-04-06T01:41:38.213Z,56.37
2019-04-06T01:44:07.453Z,60.93
2019-04-06T01:46:37.877Z,57.80
2019-04-06T01:49:07.129Z,62.37
2019-04-06T01:51:36.811Z,62.63
2019-04-06T01:54:06.056Z,63.33
2019-04-06T01:56:35.287Z,68.73
2019-04-06T01:59:04.803Z,60.23
2019-04-06T02:01:41.153Z,63.37
2019-04-06T02:04:10.493Z,60.17
2019-04-06T02:06:39.699Z,59.30
2019-04-06T02:09:09.054Z,60.67
2019-04-06T02:11:39.634Z,63.57
2019-04-06T02:14:11.207Z,67.00
2019-04-06T02:16:40.866Z,61.97
2019-04-06T02:19:09.988Z,63.73
2019-04-06T02:21:39.178Z,61.93
2019-04-06T02:24:08.391Z,60.00
2019-04-06T02:26:37.813Z,63.30
2019-04-06T02:29:07.022Z,60.90
2019-04-06T02:31:58.241Z,66.33
2019-04-06T02:34:49.859Z,67.40
2019-04-06T02:37:41.484Z,71.23
2019-04-06T02:40:30.047Z,69.20
2019-04-06T02:43:12.021Z,74.57
2019-04-06T02:45:41.695Z,81.50
2019-04-06T02:48:10.865Z,74.00
2019-04-06T02:50:40.031Z,73.33
2019-04-06T02:53:10.541Z,72.77
2019-04-06T02:55:42.920Z,75.17
2019-04-06T02:58:12.322Z,78.47
2019-04-06T03:00:44.802Z,84.57
2019-04-06T03:03:14.455Z,75.50
2019-04-06T03:05:43.771Z,85.57
2019-04-06T03:08:12.998Z,79.73
2019-04-06T03:10:42.250Z,85.47
2019-04-06T03:13:11.454Z,81.70
2019-04-06T03:15:41.140Z,83.30
2019-04-06T03:18:10.288Z,81.50
2019-04-06T03:20:39.485Z,86.70
2019-04-06T03:23:10.660Z,86.27
2019-04-06T03:25:39.864Z,82.17
2019-04-06T03:28:09.114Z,83.07
2019-04-06T03:30:38.783Z,83.53
2019-04-06T03:33:08.373Z,79.63
2019-04-06T03:35:37.794Z,81.50
2019-04-06T03:38:07.221Z,69.67
2019-04-06T03:40:38.229Z,77.57
2019-04-06T03:43:07.939Z,72.57
2019-04-06T03:45:37.218Z,70.87
2019-04-06T03:48:06.479Z,76.07
2019-04-06T03:50:38.000Z,84.53
2019-04-06T03:53:07.511Z,80.07
2019-04-06T03:55:36.939Z,78.03
2019-04-06T03:58:07.382Z,82.50
2019-04-06T04:00:39.106Z,77.67
2019-04-06T04:03:08.524Z,78.30
2019-04-06T04:05:40.519Z,78.80
2019-04-06T04:08:09.757Z,80.50
2019-04-06T04:10:41.397Z,78.67
2019-04-06T04:13:10.518Z,76.37
2019-04-06T04:15:39.872Z,81.70
2019-04-06T04:18:10.410Z,82.73
2019-04-06T04:20:39.640Z,82.03
2019-04-06T04:23:11.948Z,76.90
2019-04-06T04:25:41.434Z,81.10
2019-04-06T04:28:10.755Z,81.43
2019-04-06T04:30:41.284Z,86.03
2019-04-06T04:33:10.422Z,79.97
2019-04-06T04:35:39.545Z,83.77
2019-04-06T04:38:08.702Z,88.97
2019-04-06T04:40:37.839Z,86.37
2019-04-06T04:43:09.735Z,80.07
2019-04-06T04:45:40.631Z,80.83
2019-04-06T04:48:11.312Z,78.10
2019-04-06T04:50:41.592Z,82.10
2019-04-06T04:53:10.971Z,84.37
2019-04-06T04:55:40.068Z,83.40
2019-04-06T04:58:09.273Z,87.80
2019-04-06T05:00:38.949Z,88.07
2019-04-06T05:03:08.225Z,83.40
2019-04-06T05:05:40.556Z,90.57
2019-04-06T05:08:10.067Z,89.87
2019-04-06T05:10:39.243Z,90.17
2019-04-06T05:13:10.438Z,100.13
2019-04-06T05:16:11.504Z,90.50
2019-04-06T05:18:41.457Z,101.43
2019-04-06T05:21:13.403Z,93.47
2019-04-06T05:23:42.612Z,92.30
2019-04-06T05:26:14.073Z,102.33
2019-04-06T05:28:43.422Z,102.03
2019-04-06T05:31:13.078Z,109.97
2019-04-06T05:33:42.254Z,96.63
2019-04-06T05:36:11.450Z,96.63
2019-04-06T05:38:40.686Z,93.37
2019-04-06T05:41:09.836Z,101.90
2019-04-06T05:43:38.979Z,101.00
2019-04-06T05:46:08.144Z,104.73
2019-04-06T05:48:37.343Z,92.97
2019-04-06T05:51:07.783Z,100.10
2019-04-06T05:53:36.891Z,92.50
2019-04-06T05:56:07.239Z,104.20
2019-04-06T05:58:39.912Z,92.80
2019-04-06T06:01:11.189Z,100.73
2019-04-06T06:03:41.198Z,94.40
2019-04-06T06:06:12.622Z,101.40
2019-04-06T06:08:41.835Z,94.23
2019-04-06T06:11:11.099Z,97.23
2019-04-06T06:13:41.534Z,101.23
2019-04-06T06:16:12.061Z,95.50
2019-04-06T06:18:42.000Z,103.10
2019-04-06T06:21:11.225Z,96.60
2019-04-06T06:23:40.447Z,103.13
2019-04-06T06:26:11.249Z,101.43
2019-04-06T06:28:40.571Z,105.43
2019-04-06T06:31:09.685Z,114.60
2019-04-06T06:33:38.985Z,104.77
2019-04-06T06:36:08.080Z,102.33
2019-04-06T06:38:40.496Z,107.17
2019-04-06T06:41:09.887Z,104.47
2019-04-06T06:43:40.380Z,116.30
2019-04-06T06:46:12.536Z,124.10
2019-04-06T06:48:43.060Z,124.30
2019-04-06T06:51:12.520Z,122.20
2019-04-06T06:53:41.695Z,118.07
2019-04-06T06:56:11.009Z,118.93
2019-04-06T06:58:40.298Z,116.63
2019-04-06T07:01:09.453Z,110.43
2019-04-06T07:03:39.035Z,120.73
2019-04-06T07:06:08.158Z,104.37
2019-04-06T07:08:39.537Z,116.20
2019-04-06T07:11:08.184Z,124.73
2019-04-06T07:13:37.337Z,111.23
2019-04-06T07:16:06.631Z,113.13
2019-04-06T07:18:35.825Z,110.70
2019-04-06T07:21:07.327Z,112.83
2019-04-06T07:23:39.324Z,112.20
2019-04-06T07:26:08.505Z,109.80
2019-04-06T07:28:39.163Z,98.70
2019-04-06T07:31:08.515Z,102.30
2019-04-06T07:33:37.964Z,111.30
2019-04-06T07:36:09.933Z,110.73
2019-04-06T07:38:40.542Z,106.87
2019-04-06T07:41:11.986Z,111.77
2019-04-06T07:43:41.153Z,100.87
2019-04-06T07:46:10.406Z,101.73
2019-04-06T07:48:39.518Z,104.90
2019-04-06T07:51:08.689Z,93.77
2019-04-06T07:53:42.244Z,103.33
2019-04-06T07:56:11.941Z,98.13
2019-04-06T07:58:49.167Z,103.43
2019-04-06T08:01:16.561Z,102.40
2019-04-06T08:03:46.058Z,103.27
2019-04-06T08:06:15.221Z,98.33
2019-04-06T08:08:45.318Z,95.37
2019-04-06T08:11:15.841Z,104.27
2019-04-06T08:13:46.683Z,87.90
2019-04-06T08:16:19.045Z,94.53
2019-04-06T08:18:48.317Z,101.63
2019-04-06T08:21:19.738Z,90.20
2019-04-06T08:23:49.111Z,92.93
2019-04-06T08:26:18.502Z,99.40
2019-04-06T08:28:59.775Z,99.73
2019-04-06T08:31:22.417Z,98.47
2019-04-06T08:33:51.645Z,101.70
2019-04-06T08:36:22.832Z,89.87
2019-04-06T08:38:52.792Z,107.23
2019-04-06T08:41:22.041Z,94.57
2019-04-06T08:43:52.228Z,95.80
2019-04-06T08:46:25.615Z,99.27
2019-04-06T08:48:55.158Z,95.73
2019-04-06T08:51:26.026Z,94.60
2019-04-06T08:53:55.934Z,93.07
2019-04-06T08:56:25.275Z,95.90
2019-04-06T08:59:10.741Z,92.63
2019-04-06T09:01:35.788Z,97.77
2019-04-06T09:04:05.344Z,95.53
2019-04-06T09:06:34.491Z,93.23
2019-04-06T09:09:05.025Z,93.23
2019-04-06T09:11:34.239Z,90.20
2019-04-06T09:14:03.626Z,93.80
2019-04-06T09:16:32.836Z,92.57
2019-04-06T09:19:03.279Z,91.67
2019-04-06T09:21:32.481Z,90.10
2019-04-06T09:24:01.926Z,94.87
2019-04-06T09:26:31.227Z,94.80
2019-04-06T09:29:00.374Z,93.93
2019-04-06T09:31:29.748Z,83.13
2019-04-06T09:33:59.448Z,86.87
2019-04-06T09:36:30.934Z,91.57
2019-04-06T09:39:01.170Z,93.47
2019-04-06T09:41:30.564Z,84.67
2019-04-06T09:43:59.823Z,84.33
2019-04-06T09:46:57.511Z,88.23
2019-04-06T09:49:48.937Z,86.47
2019-04-06T09:52:24.947Z,86.07
2019-04-06T09:55:00.363Z,85.83
2019-04-06T09:57:35.965Z,88.90
2019-04-06T10:00:31.947Z,88.90
2019-04-06T10:03:30.994Z,74.70
2019-04-06T10:06:19.295Z,77.43
2019-04-06T10:09:07.555Z,67.67
2019-04-06T10:12:04.269Z,70.13
2019-04-06T10:14:51.270Z,69.37
2019-04-06T10:17:44.542Z,67.47
2019-04-06T10:20:31.566Z,70.60
2019-04-06T10:23:18.607Z,67.87
2019-04-06T10:26:10.245Z,64.57
2019-04-06T10:28:58.502Z,67.97
2019-04-06T10:31:47.660Z,66.80
2019-04-06T10:34:25.644Z,69.57
2019-04-06T10:37:13.011Z,68.63
2019-04-06T10:39:56.546Z,70.97
2019-04-06T10:42:41.213Z,66.87
2019-04-06T10:45:28.023Z,64.53
2019-04-06T10:48:13.301Z,65.10
2019-04-06T10:51:04.882Z,60.67
2019-04-06T10:53:54.814Z,62.73
2019-04-06T10:56:41.878Z,59.27
2019-04-06T10:59:25.320Z,59.23
2019-04-06T11:02:20.283Z,61.57
2019-04-06T11:04:55.650Z,61.43
2019-04-06T11:07:35.570Z,59.57
2019-04-06T11:10:19.883Z,66.13
2019-04-06T11:13:16.398Z,60.90
2019-04-06T11:16:10.775Z,60.40
2019-04-06T11:18:59.912Z,63.27
2019-04-06T11:21:53.951Z,78.90
2019-04-06T11:24:42.130Z,68.63
2019-04-06T11:27:40.470Z,69.83
2019-04-06T11:30:19.428Z,86.90
2019-04-06T11:33:08.610Z,85.83
2019-04-06T11:36:10.062Z,74.50
2019-04-06T11:39:01.555Z,75.20
2019-04-06T11:41:50.130Z,68.50
2019-04-06T11:44:51.028Z,71.40
2019-04-06T11:47:42.770Z,70.63
2019-04-06T11:50:21.000Z,74.87
2019-04-06T11:52:56.798Z,73.97
2019-04-06T11:55:34.052Z,73.10
2019-04-06T11:58:21.201Z,72.93
2019-04-06T12:01:01.273Z,71.60
2019-04-06T12:03:49.888Z,71.90
2019-04-06T12:06:24.123Z,73.60
2019-04-06T12:09:12.411Z,71.90
2019-04-06T12:11:49.320Z,70.47
2019-04-06T12:14:26.386Z,66.17
2019-04-06T12:17:16.726Z,60.23
2019-04-06T12:20:04.190Z,61.97
2019-04-06T12:22:41.373Z,63.90
2019-04-06T12:25:28.450Z,70.63
2019-04-06T12:28:21.758Z,63.50
2019-04-06T12:31:09.892Z,59.50
2019-04-06T12:33:58.134Z,61.77
2019-04-06T12:36:46.585Z,62.40
2019-04-06T12:39:25.594Z,59.17
2019-04-06T12:42:35.612Z,64.23
2019-04-06T12:45:22.961Z,63.60
2019-04-06T12:48:17.442Z,63.97
2019-04-06T12:51:15.032Z,61.33
2019-04-06T12:54:26.135Z,59.53
2019-04-06T12:57:02.065Z,57.53
2019-04-06T12:59:43.097Z,62.83
2019-04-06T13:02:46.528Z,60.70
2019-04-06T13:05:33.175Z,62.43
2019-04-06T13:08:21.442Z,61.77
2019-04-06T13:11:12.945Z,60.27
2019-04-06T13:13:48.239Z,60.83
2019-04-06T13:16:32.111Z,66.70
2019-04-06T13:19:20.377Z,58.93
2019-04-06T13:22:14.660Z,60.80
2019-04-06T13:25:09.811Z,62.27
2019-04-06T13:28:04.731Z,64.70
2019-04-06T13:30:47.637Z,65.50
2019-04-06T13:33:28.412Z,61.53
2019-04-06T13:36:31.760Z,62.73
2019-04-06T13:39:12.885Z,61.37
2019-04-06T13:42:04.627Z,59.43
2019-04-06T13:44:59.000Z,60.50
2019-04-06T13:47:38.956Z,58.90
2019-04-06T13:50:30.618Z,56.30
2019-04-06T13:53:24.982Z,56.47
2019-04-06T13:56:22.480Z,49.97
2019-04-06T13:59:06.717Z,54.87
2019-04-06T14:01:53.804Z,54.13
2019-04-06T14:04:34.496Z,51.53
2019-04-06T14:07:32.128Z,51.23
2019-04-06T14:10:10.599Z,52.50
2019-04-06T14:12:53.924Z,51.80
2019-04-06T14:15:54.529Z,56.00
2019-04-06T14:18:53.346Z,46.40
2019-04-06T14:21:30.279Z,45.83
2019-04-06T14:24:25.671Z,44.90
2019-04-06T14:27:20.085Z,44.30
2019-04-06T14:30:14.535Z,44.17
2019-04-06T14:33:02.064Z,43.33
2019-04-06T14:36:00.122Z,45.17
2019-04-06T14:39:01.039Z,48.10
2019-04-06T14:41:49.703Z,38.13
2019-04-06T14:44:35.289Z,41.80
2019-04-06T14:47:29.572Z,43.37
2019-04-06T14:50:16.745Z,42.83
2019-04-06T14:53:04.024Z,42.03
2019-04-06T14:55:41.681Z,41.17
2019-04-06T14:58:28.338Z,37.67
2019-04-06T15:01:19.644Z,38.40
2019-04-06T15:04:02.521Z,34.63
2019-04-06T15:06:49.384Z,36.07
2019-04-06T15:09:37.682Z,39.23
2019-04-06T15:12:35.142Z,37.70
2019-04-06T15:15:29.538Z,37.40
2019-04-06T15:18:11.496Z,37.10
2019-04-06T15:21:04.512Z,37.27
2019-04-06T15:24:07.820Z,42.47
2019-04-06T15:26:48.612Z,39.23
2019-04-06T15:29:39.820Z,38.50
2019-04-06T15:32:36.159Z,33.60
2019-04-06T15:35:25.453Z,31.93
2019-04-06T15:38:12.010Z,34.63
2019-04-06T15:40:51.879Z,41.10
2019-04-06T15:43:52.362Z,43.07
2019-04-06T15:46:33.309Z,39.27
2019-04-06T15:49:20.818Z,42.83
2019-04-06T15:52:15.575Z,42.67
2019-04-06T15:55:05.159Z,43.13
2019-04-06T15:57:48.014Z,38.97
2019-04-06T16:00:35.876Z,38.33
2019-04-06T16:03:22.617Z,41.33
2019-04-06T16:06:01.806Z,46.50
2019-04-06T16:08:41.727Z,40.77
2019-04-06T16:11:39.262Z,37.73
2019-04-06T16:14:23.737Z,32.60
2019-04-06T16:17:14.439Z,35.97
2019-04-06T16:19:51.351Z,36.70
2019-04-06T16:22:47.889Z,36.13
2019-04-06T16:25:54.518Z,35.63
2019-04-06T16:28:46.827Z,34.87
2019-04-06T16:31:35.378Z,35.37
2019-04-06T16:34:24.536Z,33.50
2019-04-06T16:37:08.334Z,37.33
2019-04-06T16:39:59.500Z,38.53
2019-04-06T16:42:53.980Z,42.43
2019-04-06T16:45:30.996Z,44.07
2019-04-06T16:48:25.480Z,41.40
2019-04-06T16:51:21.252Z,45.53
2019-04-06T16:54:13.508Z,45.00
2019-04-06T16:56:54.300Z,46.60
2019-04-06T16:59:42.815Z,50.07
2019-04-06T17:02:43.838Z,48.30
2019-04-06T17:05:22.341Z,47.23
2019-04-06T17:08:12.431Z,52.70
2019-04-06T17:11:02.412Z,50.63
2019-04-06T17:13:49.632Z,52.50
2019-04-06T17:16:27.357Z,47.40
2019-04-06T17:19:11.206Z,55.87
2019-04-06T17:21:48.226Z,54.90
2019-04-06T17:24:28.297Z,50.20
2019-04-06T17:27:10.812Z,51.17
2019-04-06T17:30:07.198Z,49.73
2019-04-06T17:33:02.745Z,55.10
2019-04-06T17:35:49.587Z,54.43
2019-04-06T17:38:24.934Z,56.33
2019-04-06T17:41:06.625Z,50.50
2019-04-06T17:44:02.331Z,55.00
2019-04-06T17:46:52.688Z,54.47
2019-04-06T17:49:39.761Z,58.07
2019-04-06T17:52:27.267Z,59.93
2019-04-06T17:55:14.487Z,52.53
2019-04-06T17:58:12.362Z,58.50
2019-04-06T18:01:09.844Z,66.83
2019-04-06T18:04:06.859Z,60.87
2019-04-06T18:06:54.229Z,61.97
2019-04-06T18:09:36.976Z,58.23
2019-04-06T18:12:18.539Z,61.73
2019-04-06T18:14:48.751Z,62.03
2019-04-06T18:17:18.100Z,73.07
2019-04-06T18:19:47.402Z,83.07
2019-04-06T18:22:17.481Z,70.33
2019-04-06T18:24:46.838Z,60.17
2019-04-06T18:27:16.239Z,64.23
2019-04-06T18:29:47.735Z,67.30
2019-04-06T18:32:37.503Z,63.60
2019-04-06T18:35:07.613Z,60.23
2019-04-06T18:37:41.260Z,63.00
2019-04-06T18:40:17.372Z,66.97
2019-04-06T18:42:47.357Z,65.53
2019-04-06T18:45:16.610Z,72.23
2019-04-06T18:47:46.226Z,74.10
2019-04-06T18:50:15.512Z,82.43
2019-04-06T18:52:44.628Z,80.90
2019-04-06T18:55:14.201Z,77.87
2019-04-06T18:57:43.540Z,88.83
2019-04-06T19:00:14.014Z,85.60
2019-04-06T19:02:46.291Z,78.20
2019-04-06T19:05:18.398Z,83.33
2019-04-06T19:07:47.559Z,92.23
2019-04-06T19:10:17.570Z,88.20
2019-04-06T19:12:49.489Z,104.70
2019-04-06T19:15:19.045Z,95.77
2019-04-06T19:17:53.954Z,99.27
2019-04-06T19:20:23.588Z,113.00
2019-04-06T19:22:55.632Z,104.23
2019-04-06T19:25:27.322Z,105.20
2019-04-06T19:27:56.948Z,114.67
2019-04-06T19:30:30.380Z,109.80
2019-04-06T19:32:59.985Z,117.23
2019-04-06T19:35:31.544Z,116.70
2019-04-06T19:38:00.752Z,107.40
2019-04-06T19:40:30.295Z,124.33
2019-04-06T19:43:00.001Z,114.30
2019-04-06T19:45:32.467Z,108.90
2019-04-06T19:48:02.036Z,109.77
2019-04-06T19:50:33.718Z,116.00
2019-04-06T19:53:03.075Z,142.57
2019-04-06T19:55:32.281Z,139.03
2019-04-06T19:58:08.387Z,125.23
2019-04-06T20:00:37.565Z,141.53
2019-04-06T20:03:07.079Z,141.17
2019-04-06T20:05:36.211Z,127.73
2019-04-06T20:08:09.775Z,134.50
2019-04-06T20:10:39.629Z,126.07
2019-04-06T20:13:19.864Z,138.10
2019-04-06T20:15:49.286Z,128.50
2019-04-06T20:18:18.453Z,125.53
2019-04-06T20:20:47.930Z,118.63
2019-04-06T20:23:17.674Z,157.10
2019-04-06T20:25:47.740Z,140.07
2019-04-06T20:28:17.535Z,126.57
2019-04-06T20:30:46.775Z,149.67
2019-04-06T20:33:16.512Z,133.83
2019-04-06T20:35:46.907Z,137.70
2019-04-06T20:38:17.280Z,135.03
2019-04-06T20:40:46.428Z,129.80
2019-04-06T20:43:15.625Z,133.50
2019-04-06T20:45:48.816Z,135.93
2019-04-06T20:48:18.491Z,140.53
2019-04-06T20:50:47.746Z,139.83
2019-04-06T20:53:16.982Z,135.47
2019-04-06T20:55:46.283Z,149.27
2019-04-06T20:58:18.259Z,132.33
2019-04-06T21:00:49.135Z,155.00
2019-04-06T21:03:18.836Z,156.73
2019-04-06T21:05:48.858Z,151.53
2019-04-06T21:08:18.826Z,154.60
2019-04-06T21:10:48.612Z,152.93
2019-04-06T21:13:17.741Z,150.80
2019-04-06T21:15:48.788Z,144.00
2019-04-06T21:18:18.053Z,141.03
2019-04-06T21:20:48.050Z,141.70
2019-04-06T21:23:17.307Z,130.83
2019-04-06T21:25:46.571Z,135.67
2019-04-06T21:28:15.754Z,137.90
2019-04-06T21:30:45.002Z,139.87
2019-04-06T21:33:14.405Z,175.90
2019-04-06T21:35:44.628Z,166.17
2019-04-06T21:38:14.817Z,178.63
2019-04-06T21:40:44.040Z,162.70
2019-04-06T21:43:13.522Z,171.83
2019-04-06T21:45:46.803Z,181.20
2019-04-06T21:48:16.137Z,172.40
2019-04-06T21:50:50.585Z,186.90
2019-04-06T21:53:20.357Z,179.40
2019-04-06T21:56:01.036Z,182.00
2019-04-06T21:58:20.733Z,180.10
2019-04-06T22:00:53.670Z,177.10
2019-04-06T22:03:24.118Z,171.23
2019-04-06T22:05:53.320Z,166.80
2019-04-06T22:08:23.260Z,169.73
2019-04-06T22:10:53.952Z,175.57
2019-04-06T22:13:23.533Z,161.50
2019-04-06T22:15:52.786Z,169.67
2019-04-06T22:18:22.098Z,165.27
2019-04-06T22:20:51.395Z,172.00
2019-04-06T22:23:22.640Z,176.40
2019-04-06T22:25:58.272Z,167.60
2019-04-06T22:28:27.532Z,170.23
2019-04-06T22:30:59.002Z,170.33
2019-04-06T22:33:30.596Z,165.67
2019-04-06T22:36:01.076Z,172.77
2019-04-06T22:38:30.863Z,174.90
2019-04-06T22:41:00.159Z,170.13
2019-04-06T22:43:29.604Z,177.40
2019-04-06T22:45:59.922Z,170.40
2019-04-06T22:48:30.036Z,177.87
2019-04-06T22:50:59.118Z,181.13
2019-04-06T22:53:29.764Z,177.37
2019-04-06T22:55:59.109Z,177.10
2019-04-06T22:58:28.238Z,183.40
2019-04-06T23:01:16.704Z,170.77
2019-04-06T23:04:04.062Z,168.87
2019-04-06T23:06:40.413Z,182.00
2019-04-06T23:09:10.072Z,179.53
2019-04-06T23:11:39.872Z,178.00
2019-04-06T23:14:10.050Z,165.17
2019-04-06T23:16:39.295Z,165.97
2019-04-06T23:19:08.426Z,163.93
2019-04-06T23:21:37.645Z,185.37
2019-04-06T23:24:10.100Z,179.23
2019-04-06T23:26:39.843Z,178.73
2019-04-06T23:29:16.609Z,166.47
2019-04-06T23:31:46.206Z,177.17
2019-04-06T23:34:16.093Z,177.47
2019-04-06T23:36:47.354Z,176.63
2019-04-06T23:39:17.180Z,186.83
2019-04-06T23:41:46.723Z,176.87
2019-04-06T23:44:16.837Z,177.27
2019-04-06T23:46:46.151Z,175.90
2019-04-06T23:49:15.318Z,157.13
2019-04-06T23:51:48.095Z,174.67
2019-04-06T23:54:17.293Z,182.03
2019-04-06T23:56:46.408Z,171.97
2019-04-06T23:59:15.600Z,179.77
